createdAt,value
2023-06-19T00:01:59.675Z,13.43
2023-06-19T00:04:28.884Z,16.83
2023-06-19T00:06:58.370Z,15.70
2023-06-19T00:09:26.321Z,16.67
2023-06-19T00:11:55.065Z,16.00
2023-06-19T00:14:23.360Z,14.97
2023-06-19T00:16:52.543Z,13.97
2023-06-19T00:19:20.756Z,14.33
2023-06-19T00:21:48.754Z,13.27
2023-06-19T00:24:18.772Z,14.47
2023-06-19T00:26:47.262Z,12.50
2023-06-19T00:29:15.858Z,11.60
2023-06-19T00:31:43.818Z,13.00
2023-06-19T00:34:11.953Z,13.73
2023-06-19T00:36:42.105Z,12.20
2023-06-19T00:39:10.365Z,12.50
2023-06-19T00:41:41.482Z,13.97
2023-06-19T00:44:09.560Z,14.43
2023-06-19T00:46:42.811Z,13.63
2023-06-19T00:49:10.912Z,16.53
2023-06-19T00:51:40.290Z,14.67
2023-06-19T00:54:09.598Z,17.47
2023-06-19T00:56:42.295Z,13.73
2023-06-19T00:59:18.745Z,13.13
2023-06-19T01:01:47.492Z,14.27
2023-06-19T01:04:16.801Z,18.13
2023-06-19T01:06:53.707Z,14.07
2023-06-19T01:09:23.774Z,12.43
2023-06-19T01:12:00.389Z,13.20
2023-06-19T01:14:30.821Z,13.20
2023-06-19T01:16:59.726Z,13.20
2023-06-19T01:19:28.691Z,20.23
2023-06-19T01:21:56.646Z,19.53
2023-06-19T01:24:26.354Z,15.87
2023-06-19T01:26:54.832Z,13.53
2023-06-19T01:29:23.436Z,17.30
2023-06-19T01:31:57.732Z,16.57
2023-06-19T01:34:29.844Z,15.10
2023-06-19T01:36:59.289Z,15.13
2023-06-19T01:39:30.286Z,17.07
2023-06-19T01:41:59.279Z,14.07
2023-06-19T01:44:27.719Z,15.27
2023-06-19T01:46:56.397Z,17.90
2023-06-19T01:49:24.724Z,16.37
2023-06-19T01:51:52.836Z,14.53
2023-06-19T01:54:21.435Z,13.97
2023-06-19T01:56:50.905Z,15.60
2023-06-19T01:59:20.003Z,14.17
2023-06-19T02:01:48.148Z,16.00
2023-06-19T02:04:16.718Z,13.43
2023-06-19T02:06:45.260Z,18.80
2023-06-19T02:09:13.331Z,16.27
2023-06-19T02:11:41.506Z,15.87
2023-06-19T02:14:12.363Z,14.33
2023-06-19T02:16:42.595Z,20.20
2023-06-19T02:19:10.990Z,14.63
2023-06-19T02:21:39.749Z,13.73
2023-06-19T02:24:08.093Z,15.33
2023-06-19T02:26:36.562Z,14.20
2023-06-19T02:29:05.041Z,14.00
2023-06-19T02:31:34.374Z,16.20
2023-06-19T02:34:02.404Z,12.13
2023-06-19T02:36:32.016Z,12.20
2023-06-19T02:39:01.259Z,16.30
2023-06-19T02:41:29.475Z,13.53
2023-06-19T02:43:58.107Z,15.90
2023-06-19T02:46:26.286Z,14.03
2023-06-19T02:48:55.833Z,13.60
2023-06-19T02:51:24.373Z,15.60
2023-06-19T02:53:52.554Z,12.47
2023-06-19T02:56:21.044Z,13.07
2023-06-19T02:58:49.609Z,17.07
2023-06-19T03:01:17.886Z,16.17
2023-06-19T03:03:47.821Z,13.07
2023-06-19T03:06:19.217Z,13.17
2023-06-19T03:08:47.246Z,14.70
2023-06-19T03:11:15.831Z,11.67
2023-06-19T03:13:49.404Z,15.87
2023-06-19T03:16:18.075Z,15.00
2023-06-19T03:18:46.819Z,13.23
2023-06-19T03:21:17.109Z,11.10
2023-06-19T03:23:45.687Z,11.73
2023-06-19T03:26:13.646Z,12.07
2023-06-19T03:28:42.248Z,14.40
2023-06-19T03:31:10.825Z,11.70
2023-06-19T03:33:38.855Z,12.40
2023-06-19T03:36:07.891Z,13.57
2023-06-19T03:38:37.788Z,12.40
2023-06-19T03:41:05.959Z,13.03
2023-06-19T03:43:34.149Z,14.37
2023-06-19T03:46:02.807Z,13.30
2023-06-19T03:48:30.970Z,14.17
2023-06-19T03:50:59.261Z,13.77
2023-06-19T03:53:27.882Z,12.10
2023-06-19T03:55:57.524Z,13.00
2023-06-19T03:58:25.701Z,13.10
2023-06-19T04:00:54.254Z,13.90
2023-06-19T04:03:22.822Z,19.73
2023-06-19T04:05:51.050Z,17.00
2023-06-19T04:08:19.732Z,17.23
2023-06-19T04:10:47.963Z,12.50
2023-06-19T04:13:17.784Z,12.07
2023-06-19T04:15:48.597Z,13.60
2023-06-19T04:18:18.978Z,11.90
2023-06-19T04:20:47.619Z,12.20
2023-06-19T04:23:16.032Z,13.37
2023-06-19T04:25:44.802Z,15.37
2023-06-19T04:28:13.025Z,14.10
2023-06-19T04:30:44.006Z,15.50
2023-06-19T04:33:12.747Z,11.23
2023-06-19T04:35:42.068Z,11.63
2023-06-19T04:38:11.331Z,17.67
2023-06-19T04:40:39.904Z,16.70
2023-06-19T04:43:07.964Z,13.10
2023-06-19T04:45:36.116Z,15.33
2023-06-19T04:48:06.817Z,12.43
2023-06-19T04:50:34.829Z,15.00
2023-06-19T04:53:03.363Z,15.97
2023-06-19T04:55:31.726Z,13.93
2023-06-19T04:58:00.457Z,12.63
2023-06-19T05:00:29.226Z,13.67
2023-06-19T05:03:00.654Z,14.47
2023-06-19T05:05:31.281Z,14.10
2023-06-19T05:07:59.771Z,11.40
2023-06-19T05:10:28.305Z,11.20
2023-06-19T05:12:56.988Z,14.13
2023-06-19T05:15:25.061Z,11.30
2023-06-19T05:17:53.777Z,12.33
2023-06-19T05:20:22.427Z,10.83
2023-06-19T05:22:52.103Z,11.87
2023-06-19T05:25:20.819Z,14.77
2023-06-19T05:27:48.965Z,12.60
2023-06-19T05:30:17.815Z,11.80
2023-06-19T05:32:46.950Z,15.60
2023-06-19T05:35:16.737Z,12.07
2023-06-19T05:37:46.019Z,11.20
2023-06-19T05:40:16.219Z,11.90
2023-06-19T05:42:44.726Z,10.43
2023-06-19T05:45:13.725Z,12.17
2023-06-19T05:47:43.521Z,11.67
2023-06-19T05:50:12.836Z,12.33
2023-06-19T05:52:44.525Z,11.70
2023-06-19T05:55:13.564Z,11.73
2023-06-19T05:57:43.507Z,11.17
2023-06-19T06:00:15.835Z,12.23
2023-06-19T06:02:44.205Z,12.40
2023-06-19T06:05:12.317Z,12.00
2023-06-19T06:07:41.603Z,11.63
2023-06-19T06:10:10.773Z,11.87
2023-06-19T06:12:39.962Z,11.97
2023-06-19T06:15:11.048Z,14.87
2023-06-19T06:17:39.241Z,12.03
2023-06-19T06:20:13.951Z,12.27
2023-06-19T06:22:42.628Z,11.93
2023-06-19T06:25:13.851Z,11.80
2023-06-19T06:27:43.188Z,12.20
2023-06-19T06:30:14.736Z,12.90
2023-06-19T06:32:42.956Z,12.10
2023-06-19T06:35:11.911Z,15.10
2023-06-19T06:37:40.141Z,13.43
2023-06-19T06:40:12.696Z,17.00
2023-06-19T06:42:41.030Z,12.17
2023-06-19T06:45:10.500Z,11.90
2023-06-19T06:47:41.690Z,10.37
2023-06-19T06:50:11.815Z,12.73
2023-06-19T06:52:40.076Z,12.60
2023-06-19T06:55:09.256Z,11.03
2023-06-19T06:57:37.346Z,10.80
2023-06-19T07:00:08.269Z,10.27
2023-06-19T07:02:36.953Z,10.93
2023-06-19T07:05:07.289Z,10.23
2023-06-19T07:07:35.534Z,11.23
2023-06-19T07:10:05.229Z,10.90
2023-06-19T07:12:33.792Z,10.70
2023-06-19T07:15:02.829Z,10.37
2023-06-19T07:17:31.773Z,10.07
2023-06-19T07:20:00.111Z,10.90
2023-06-19T07:22:29.737Z,11.57
2023-06-19T07:24:58.422Z,9.97
2023-06-19T07:27:28.787Z,11.37
2023-06-19T07:29:57.146Z,10.17
2023-06-19T07:32:25.831Z,10.43
2023-06-19T07:34:53.992Z,9.23
2023-06-19T07:37:22.722Z,7.50
2023-06-19T07:39:54.031Z,8.60
2023-06-19T07:42:22.633Z,8.10
2023-06-19T07:44:50.937Z,8.10
2023-06-19T07:47:22.254Z,8.57
2023-06-19T07:49:50.606Z,8.57
2023-06-19T07:52:18.736Z,8.43
2023-06-19T07:54:58.114Z,9.00
2023-06-19T07:57:27.575Z,8.13
2023-06-19T07:59:57.457Z,8.97
2023-06-19T08:02:25.686Z,7.60
2023-06-19T08:04:54.857Z,9.73
2023-06-19T08:07:23.433Z,10.20
2023-06-19T08:10:00.282Z,8.80
2023-06-19T08:12:38.205Z,8.50
2023-06-19T08:15:07.185Z,7.40
2023-06-19T08:17:35.937Z,8.33
2023-06-19T08:20:06.907Z,7.60
2023-06-19T08:22:35.275Z,7.40
2023-06-19T08:25:03.351Z,7.10
2023-06-19T08:27:32.085Z,6.10
2023-06-19T08:30:01.648Z,9.53
2023-06-19T08:32:33.288Z,5.80
2023-06-19T08:35:01.462Z,11.00
2023-06-19T08:37:30.165Z,9.47
2023-06-19T08:40:01.627Z,7.83
2023-06-19T08:42:30.102Z,8.67
2023-06-19T08:44:59.040Z,7.10
2023-06-19T08:47:35.719Z,10.40
2023-06-19T08:50:05.057Z,7.60
2023-06-19T08:52:34.297Z,6.87
2023-06-19T08:55:03.356Z,7.30
2023-06-19T08:57:39.723Z,7.23
2023-06-19T09:00:12.424Z,7.03
2023-06-19T09:02:44.591Z,7.13
2023-06-19T09:05:18.105Z,6.27
2023-06-19T09:07:47.341Z,7.03
2023-06-19T09:10:20.267Z,6.40
2023-06-19T09:13:01.838Z,7.70
2023-06-19T09:15:32.419Z,5.80
2023-06-19T09:18:10.563Z,6.93
2023-06-19T09:20:45.437Z,8.07
2023-06-19T09:23:14.962Z,8.03
2023-06-19T09:25:48.351Z,6.07
2023-06-19T09:28:21.164Z,7.53
2023-06-19T09:30:58.060Z,5.20
2023-06-19T09:33:29.379Z,5.40
2023-06-19T09:35:58.856Z,5.57
2023-06-19T09:38:28.736Z,6.70
2023-06-19T09:41:02.811Z,5.90
2023-06-19T09:43:36.904Z,5.53
2023-06-19T09:46:06.764Z,6.13
2023-06-19T09:48:37.257Z,5.80
2023-06-19T09:51:13.545Z,5.20
2023-06-19T09:53:42.542Z,6.80
2023-06-19T09:56:11.948Z,7.80
2023-06-19T09:58:41.293Z,7.70
2023-06-19T10:01:09.500Z,10.30
2023-06-19T10:03:39.213Z,8.37
2023-06-19T10:06:07.668Z,8.00
2023-06-19T10:08:42.037Z,6.93
2023-06-19T10:11:10.632Z,8.20
2023-06-19T10:13:41.980Z,10.50
2023-06-19T10:16:21.970Z,17.43
2023-06-19T10:18:52.549Z,7.13
2023-06-19T10:21:21.783Z,6.70
2023-06-19T10:23:58.051Z,10.87
2023-06-19T10:26:34.231Z,7.40
2023-06-19T10:29:03.453Z,6.90
2023-06-19T10:31:33.701Z,7.97
2023-06-19T10:34:06.175Z,8.03
2023-06-19T10:36:34.504Z,8.47
2023-06-19T10:39:03.767Z,6.07
2023-06-19T10:41:33.224Z,7.17
2023-06-19T10:44:03.024Z,7.37
2023-06-19T10:46:33.770Z,6.83
2023-06-19T10:49:05.928Z,6.30
2023-06-19T10:51:38.618Z,6.83
2023-06-19T10:54:08.329Z,10.50
2023-06-19T10:56:37.313Z,5.57
2023-06-19T10:59:07.693Z,5.73
2023-06-19T11:01:38.276Z,5.47
2023-06-19T11:04:09.692Z,7.27
2023-06-19T11:06:40.296Z,5.60
2023-06-19T11:09:10.171Z,5.87
2023-06-19T11:11:40.491Z,6.57
2023-06-19T11:14:09.520Z,7.07
2023-06-19T11:16:41.894Z,7.50
2023-06-19T11:19:12.109Z,6.30
2023-06-19T11:21:40.373Z,7.03
2023-06-19T11:24:14.829Z,5.40
2023-06-19T11:26:45.436Z,6.20
2023-06-19T11:29:18.401Z,5.00
2023-06-19T11:31:48.185Z,5.50
2023-06-19T11:34:23.398Z,5.97
2023-06-19T11:36:53.159Z,6.33
2023-06-19T11:39:22.841Z,7.00
2023-06-19T11:41:52.704Z,6.23
2023-06-19T11:44:22.611Z,5.60
2023-06-19T11:46:50.849Z,6.63
2023-06-19T11:49:20.901Z,5.00
2023-06-19T11:51:49.811Z,5.83
2023-06-19T11:54:18.971Z,5.00
2023-06-19T11:56:49.360Z,5.33
2023-06-19T11:59:17.575Z,4.60
2023-06-19T12:01:45.753Z,4.80
2023-06-19T12:04:15.503Z,3.97
2023-06-19T12:06:45.913Z,6.40
2023-06-19T12:09:14.085Z,6.50
2023-06-19T12:11:42.776Z,8.40
2023-06-19T12:14:11.224Z,4.40
2023-06-19T12:16:39.285Z,4.50
2023-06-19T12:19:08.518Z,4.07
2023-06-19T12:21:40.315Z,4.00
2023-06-19T12:24:12.138Z,4.50
2023-06-19T12:26:41.179Z,3.80
2023-06-19T12:29:09.419Z,4.70
2023-06-19T12:31:38.724Z,4.50
2023-06-19T12:34:21.174Z,4.40
2023-06-19T12:36:56.152Z,3.97
2023-06-19T12:39:26.353Z,5.60
2023-06-19T12:41:54.625Z,4.33
2023-06-19T12:44:26.082Z,5.43
2023-06-19T12:46:54.836Z,4.27
2023-06-19T12:49:23.127Z,4.87
2023-06-19T12:51:53.632Z,7.53
2023-06-19T12:54:22.227Z,8.93
2023-06-19T12:56:52.447Z,3.53
2023-06-19T12:59:21.444Z,3.27
2023-06-19T13:01:49.727Z,4.50
2023-06-19T13:04:18.133Z,4.73
2023-06-19T13:06:46.900Z,3.30
2023-06-19T13:09:15.204Z,5.93
2023-06-19T13:11:43.330Z,2.90
2023-06-19T13:14:13.409Z,3.90
2023-06-19T13:16:46.808Z,4.10
2023-06-19T13:19:18.844Z,4.63
2023-06-19T13:21:47.282Z,3.63
2023-06-19T13:24:15.500Z,3.90
2023-06-19T13:26:44.116Z,4.33
2023-06-19T13:29:14.195Z,6.37
2023-06-19T13:31:45.147Z,4.10
2023-06-19T13:34:13.403Z,4.10
2023-06-19T13:36:42.015Z,3.77
2023-06-19T13:39:10.754Z,3.37
2023-06-19T13:41:39.351Z,4.70
2023-06-19T13:44:07.651Z,3.30
2023-06-19T13:46:37.669Z,4.20
2023-06-19T13:49:05.803Z,3.90
2023-06-19T13:51:34.513Z,4.80
2023-06-19T13:54:04.951Z,4.07
2023-06-19T13:56:33.393Z,3.97
2023-06-19T13:59:01.431Z,3.90
2023-06-19T14:01:30.253Z,4.27
2023-06-19T14:04:00.498Z,3.93
2023-06-19T14:06:28.591Z,3.63
2023-06-19T14:08:57.414Z,5.20
2023-06-19T14:11:25.964Z,3.30
2023-06-19T14:13:54.545Z,5.07
2023-06-19T14:16:23.531Z,4.00
2023-06-19T14:18:51.886Z,5.10
2023-06-19T14:21:23.478Z,3.17
2023-06-19T14:23:51.774Z,3.13
2023-06-19T14:26:20.115Z,4.60
2023-06-19T14:28:49.005Z,4.13
2023-06-19T14:31:17.436Z,7.53
2023-06-19T14:33:45.577Z,5.03
2023-06-19T14:36:14.170Z,3.87
2023-06-19T14:38:44.058Z,3.70
2023-06-19T14:41:12.135Z,5.77
2023-06-19T14:43:40.693Z,4.60
2023-06-19T14:46:09.088Z,4.17
2023-06-19T14:48:37.538Z,4.33
2023-06-19T14:51:06.776Z,4.30
2023-06-19T14:53:34.974Z,5.63
2023-06-19T14:56:04.738Z,5.80
2023-06-19T14:58:32.846Z,3.67
2023-06-19T15:01:01.151Z,4.27
2023-06-19T15:03:29.421Z,3.50
2023-06-19T15:05:58.820Z,4.50
2023-06-19T15:08:28.002Z,3.73
2023-06-19T15:10:56.196Z,3.50
2023-06-19T15:13:26.285Z,3.50
2023-06-19T15:15:54.345Z,3.70
2023-06-19T15:18:23.397Z,3.93
2023-06-19T15:20:52.212Z,4.53
2023-06-19T15:23:20.526Z,3.57
2023-06-19T15:25:50.205Z,4.63
2023-06-19T15:28:19.772Z,3.53
2023-06-19T15:30:49.536Z,2.90
2023-06-19T15:33:19.244Z,3.90
2023-06-19T15:35:48.727Z,4.10
2023-06-19T15:38:16.943Z,5.20
2023-06-19T15:40:45.862Z,3.30
2023-06-19T15:43:14.278Z,6.03
2023-06-19T15:45:42.714Z,3.90
2023-06-19T15:48:12.781Z,6.53
2023-06-19T15:50:41.877Z,4.37
2023-06-19T15:53:10.760Z,5.77
2023-06-19T15:55:39.559Z,4.20
2023-06-19T15:58:07.850Z,5.70
2023-06-19T16:00:36.031Z,4.20
2023-06-19T16:03:05.860Z,3.57
2023-06-19T16:05:35.754Z,6.70
2023-06-19T16:08:04.302Z,4.50
2023-06-19T16:10:33.112Z,4.40
2023-06-19T16:13:01.300Z,3.50
2023-06-19T16:15:30.038Z,3.40
2023-06-19T16:17:58.706Z,5.10
2023-06-19T16:20:28.773Z,4.30
2023-06-19T16:22:59.506Z,3.53
2023-06-19T16:25:27.874Z,6.00
2023-06-19T16:27:58.739Z,4.73
2023-06-19T16:30:28.104Z,4.20
2023-06-19T16:32:56.976Z,3.50
2023-06-19T16:35:25.656Z,4.33
2023-06-19T16:37:55.734Z,4.00
2023-06-19T16:40:27.203Z,4.27
2023-06-19T16:42:56.232Z,4.60
2023-06-19T16:45:28.114Z,5.50
2023-06-19T16:47:56.871Z,4.80
2023-06-19T16:50:25.590Z,5.03
2023-06-19T16:52:54.805Z,7.13
2023-06-19T16:55:25.646Z,4.20
2023-06-19T16:57:54.029Z,4.23
2023-06-19T17:00:23.116Z,4.67
2023-06-19T17:02:56.147Z,4.67
2023-06-19T17:05:25.924Z,4.70
2023-06-19T17:07:53.987Z,4.33
2023-06-19T17:10:24.096Z,5.50
2023-06-19T17:12:55.069Z,5.60
2023-06-19T17:15:23.231Z,4.93
2023-06-19T17:17:51.875Z,4.77
2023-06-19T17:20:20.795Z,4.10
2023-06-19T17:22:49.302Z,5.20
2023-06-19T17:25:18.034Z,6.10
2023-06-19T17:27:46.649Z,4.07
2023-06-19T17:30:16.345Z,4.43
2023-06-19T17:32:47.012Z,6.53
2023-06-19T17:35:15.161Z,4.40
2023-06-19T17:37:44.182Z,5.00
2023-06-19T17:40:14.588Z,4.50
2023-06-19T17:42:43.037Z,5.00
2023-06-19T17:45:12.392Z,4.90
2023-06-19T17:47:42.608Z,6.50
2023-06-19T17:50:12.803Z,7.40
2023-06-19T17:52:41.196Z,5.20
2023-06-19T17:55:10.871Z,10.27
2023-06-19T17:57:41.927Z,4.80
2023-06-19T18:00:11.966Z,4.60
2023-06-19T18:02:41.536Z,5.57
2023-06-19T18:05:09.942Z,5.70
2023-06-19T18:07:38.630Z,4.83
2023-06-19T18:10:07.946Z,12.53
2023-06-19T18:12:36.940Z,5.50
2023-06-19T18:15:05.931Z,8.03
2023-06-19T18:17:34.160Z,5.27
2023-06-19T18:20:03.896Z,5.03
2023-06-19T18:22:32.409Z,6.80
2023-06-19T18:25:00.361Z,6.43
2023-06-19T18:27:28.852Z,5.40
2023-06-19T18:29:57.512Z,5.53
2023-06-19T18:32:25.769Z,6.13
2023-06-19T18:34:55.168Z,5.43
2023-06-19T18:37:25.307Z,5.20
2023-06-19T18:39:54.103Z,5.33
2023-06-19T18:42:22.285Z,5.23
2023-06-19T18:44:50.992Z,10.63
2023-06-19T18:47:18.990Z,7.03
2023-06-19T18:49:46.995Z,6.30
2023-06-19T18:52:15.185Z,5.77
2023-06-19T18:54:44.601Z,9.27
2023-06-19T18:57:13.264Z,6.73
2023-06-19T18:59:41.367Z,5.57
2023-06-19T19:02:11.892Z,6.47
2023-06-19T19:04:43.440Z,7.33
2023-06-19T19:07:11.521Z,66.67
2023-06-19T19:09:39.785Z,48.70
2023-06-19T19:12:11.920Z,14.07
2023-06-19T19:14:42.407Z,8.37
2023-06-19T19:17:10.902Z,7.10
2023-06-19T19:19:39.471Z,7.90
2023-06-19T19:22:07.615Z,13.13
2023-06-19T19:24:36.228Z,14.87
2023-06-19T19:27:04.797Z,8.63
2023-06-19T19:29:34.732Z,7.40
2023-06-19T19:32:03.264Z,6.83
2023-06-19T19:34:31.359Z,10.00
2023-06-19T19:36:59.523Z,11.20
2023-06-19T19:39:28.161Z,7.80
2023-06-19T19:41:56.268Z,8.30
2023-06-19T19:44:24.534Z,7.80
2023-06-19T19:46:55.282Z,6.20
2023-06-19T19:49:23.463Z,6.95
2023-06-19T19:51:51.600Z,7.17
2023-06-19T19:54:20.126Z,7.77
2023-06-19T19:56:48.322Z,7.27
2023-06-19T19:59:16.462Z,6.13
2023-06-19T20:01:45.153Z,6.80
2023-06-19T20:04:17.303Z,7.53
2023-06-19T20:06:46.429Z,10.37
2023-06-19T20:09:15.117Z,6.97
2023-06-19T20:11:43.347Z,8.17
2023-06-19T20:14:12.344Z,9.37
2023-06-19T20:16:40.568Z,8.10
2023-06-19T20:19:08.764Z,8.13
2023-06-19T20:21:39.037Z,7.20
2023-06-19T20:24:07.558Z,8.67
2023-06-19T20:26:35.649Z,11.60
2023-06-19T20:29:03.821Z,9.07
2023-06-19T20:31:32.494Z,7.67
2023-06-19T20:34:00.634Z,8.17
2023-06-19T20:36:29.285Z,10.10
2023-06-19T20:38:58.889Z,13.17
2023-06-19T20:41:27.922Z,10.73
2023-06-19T20:43:56.183Z,10.80
2023-06-19T20:46:24.569Z,15.60
2023-06-19T20:48:53.045Z,9.00
2023-06-19T20:51:21.996Z,8.97
2023-06-19T20:53:50.220Z,7.93
2023-06-19T20:56:20.029Z,8.87
2023-06-19T20:58:47.974Z,9.87
2023-06-19T21:01:16.307Z,9.50
2023-06-19T21:03:44.852Z,8.23
2023-06-19T21:06:13.107Z,9.70
2023-06-19T21:08:41.099Z,8.80
2023-06-19T21:11:09.553Z,8.70
2023-06-19T21:13:39.062Z,9.20
2023-06-19T21:16:07.238Z,8.90
2023-06-19T21:18:35.749Z,11.60
2023-06-19T21:21:03.767Z,10.93
2023-06-19T21:23:31.797Z,10.70
2023-06-19T21:26:00.290Z,10.13
2023-06-19T21:28:29.275Z,8.60
2023-06-19T21:30:58.660Z,9.70
2023-06-19T21:33:32.851Z,8.57
2023-06-19T21:36:00.866Z,9.87
2023-06-19T21:38:28.987Z,10.83
2023-06-19T21:40:57.692Z,8.57
2023-06-19T21:43:25.897Z,10.20
2023-06-19T21:45:55.138Z,10.60
2023-06-19T21:48:26.303Z,11.60
2023-06-19T21:50:54.878Z,9.47
2023-06-19T21:53:23.195Z,10.73
2023-06-19T21:55:51.796Z,11.50
2023-06-19T21:58:23.030Z,9.67
2023-06-19T22:00:51.552Z,9.20
2023-06-19T22:03:19.854Z,9.17
2023-06-19T22:05:49.907Z,11.10
2023-06-19T22:08:24.463Z,10.40
2023-06-19T22:11:02.603Z,10.20
2023-06-19T22:13:32.619Z,12.67
2023-06-19T22:16:00.934Z,10.40
2023-06-19T22:18:29.462Z,10.47
2023-06-19T22:20:58.963Z,8.97
2023-06-19T22:23:27.987Z,8.50
2023-06-19T22:25:56.679Z,9.27
2023-06-19T22:28:25.077Z,8.83
2023-06-19T22:30:53.067Z,9.13
2023-06-19T22:33:21.321Z,12.30
2023-06-19T22:35:50.393Z,9.47
2023-06-19T22:38:19.823Z,15.77
2023-06-19T22:40:48.313Z,11.07
2023-06-19T22:43:16.558Z,12.00
2023-06-19T22:45:44.883Z,14.03
2023-06-19T22:48:13.520Z,10.03
2023-06-19T22:50:41.595Z,20.43
2023-06-19T22:53:09.626Z,16.00
2023-06-19T22:55:39.439Z,13.60
2023-06-19T22:58:07.601Z,10.20
2023-06-19T23:00:36.249Z,12.63
2023-06-19T23:03:07.159Z,9.30
2023-06-19T23:05:35.533Z,10.07
2023-06-19T23:08:03.645Z,9.60
2023-06-19T23:10:32.168Z,11.10
2023-06-19T23:13:01.677Z,9.70
2023-06-19T23:15:29.841Z,10.23
2023-06-19T23:17:58.824Z,10.80
2023-06-19T23:20:27.014Z,10.23
2023-06-19T23:22:55.094Z,11.23
2023-06-19T23:25:25.617Z,10.13
2023-06-19T23:27:53.984Z,10.57
2023-06-19T23:30:24.394Z,9.97
2023-06-19T23:32:53.012Z,11.20
2023-06-19T23:35:24.101Z,12.10
2023-06-19T23:37:54.578Z,11.40
2023-06-19T23:40:22.633Z,18.53
2023-06-19T23:42:51.182Z,12.23
2023-06-19T23:45:19.210Z,16.63
2023-06-19T23:47:48.962Z,11.93
2023-06-19T23:50:18.280Z,11.33
2023-06-19T23:52:47.250Z,11.30
2023-06-19T23:55:15.608Z,12.13
2023-06-19T23:57:45.599Z,11.47
